Spot Road, Arizona (BMGR) Weather observations

Data are for 10 minute period ending at time listed.
 Day   Time   Solar   Ave.   Ave.  Ave.  Vector  Max.   Total    
  of    of     Rad.   Air    Rel.  Wind   Wind   Wind  Precip.   
Year   Day            Temp.  Hum.  Speed  Dir.   Gust            
2026   (MST)  Kw/m2    F      %     mph   deg.    mph    in.     
-----------------------------------------------------------------
 129   14:35   0.80  103.1     7   19.5   200    25.0    0.00 
 129   14:40   0.79  102.6     7   18.1   211    26.7    0.00 
 129   14:45   0.78  103.0     7   12.9   204    21.6    0.00 
 129   14:50   0.77  103.3     7   10.5   201    16.0    0.00 
 129   14:55   0.76  102.3     7    8.6   190    15.5    0.00 
 129   15:00   0.75  103.2     7   13.1   234    18.3    0.00 
 129   15:05   0.74  103.9     7   13.9   226    24.4    0.00 
 129   15:10   0.72  104.3     7   20.3   215    25.0    0.00 
 129   15:15   0.71  103.2     7   11.9   219    18.3    0.00 
 129   15:20   0.70  102.7     8   16.3   226    25.0    0.00 
 129   15:25   0.69  103.2     7   15.5   218    26.7    0.00 
 129   15:30   0.68  102.8     7   10.2   246    15.5    0.00 
 129   15:35   0.66  103.1     7   12.4   226    16.0    0.00 
 129   15:40   0.65  103.6     7   12.8   225    19.4    0.00 
 129   15:45   0.64  103.9     7   13.3   232    18.9    0.00 
 129   15:50   0.62  103.8     7   14.4   220    21.1    0.00 
 129   15:55   0.61  104.2     7   13.0   213    23.9    0.00 
 129   16:00   0.59  103.9     7   15.3   211    22.2    0.00 
 129   16:05   0.58  103.6     7   13.4   208    18.9    0.00 
 129   16:10   0.56  103.1     7   14.3   198    20.0    0.00 
 129   16:15   0.55  102.8     7    9.8   177    14.4    0.00 
 129   16:20   0.54  103.8     7    7.6   218    10.5    0.00 
 129   16:25   0.52  104.3     7    9.9   234    14.9    0.00 
 129   16:30   0.51  104.1     7   19.5   212    28.9    0.00 
 129   16:35   0.49  104.3     7   20.5   204    27.2    0.00 
 129   16:40   0.48  103.1     7   16.1   189    22.2    0.00 
 129   16:45   0.46  103.8     7   14.0   212    18.9    0.00 
 129   16:50   0.44  103.2     7    8.5   214    14.9    0.00 
 129   16:55   0.43  103.5     7   15.3   231    21.6    0.00 
 129   17:00   0.41  103.2     7   17.6   237    30.0    0.00 
 129   17:05   0.40  103.1     7   18.0   224    29.5    0.00 
 129   17:10   0.38  103.4     7   18.3   208    25.0    0.00 
 129   17:15   0.36  103.6     7   16.8   211    21.1    0.00 
 129   17:20   0.35  103.3     7   14.9   210    21.6    0.00 
 129   17:25   0.33  103.7     7   14.7   212    23.3    0.00 
 129   17:30   0.32  102.7     7   13.8   220    22.8    0.00 
 129   17:35   0.30  103.3     7   16.0   202    22.2    0.00 
 129   17:40   0.28  102.6     7   18.2   181    25.0    0.00 
 129   17:45   0.27  102.2     8   15.9   188    23.3    0.00 
 129   17:50   0.25  102.8     7   15.9   199    20.5    0.00 
 129   17:55   0.23  102.7     7   15.5   221    23.3    0.00 
 129   18:00   0.22  101.9     7   16.5   228    22.2    0.00 
 129   18:05   0.20  101.9     7   15.3   224    21.6    0.00 
 129   18:10   0.19  102.1     7   14.4   200    18.9    0.00 
 129   18:15   0.17  101.8     7   16.2   197    23.3    0.00 
 129   18:20   0.16  101.8     7   17.2   206    22.2    0.00 
 129   18:25   0.14  101.8     7   14.4   204    19.4    0.00 
 129   18:30   0.13  101.6     7   13.5   207    17.7    0.00 
 129   18:35   0.11  101.1     8   15.9   203    21.1    0.00 
 129   18:40   0.10  101.1     8   13.2   210    16.6    0.00 
 129   18:45   0.09  100.9     8   14.7   207    18.3    0.00 
 129   18:50   0.07  100.6     8   14.8   214    18.3    0.00 
 129   18:55   0.06  100.4     8   13.7   209    18.9    0.00 
 129   19:00   0.05  100.1     8   13.5   214    17.7    0.00 
 129   19:05   0.04   99.8     8   11.5   209    14.9    0.00 
 129   19:10   0.03   99.4     8   11.8   205    14.9    0.00 
 129   19:15   0.02   98.8     8   11.2   204    14.4    0.00 
 129   19:20   0.01   98.3     8   10.3   205    12.7    0.00 
 129   19:25   0.00   97.9     8   10.1   203    12.1    0.00 
 129   19:30   0.00   97.5     8   10.6   205    13.8    0.00 
 129   19:35   0.00   97.0     8    9.9   205    12.1    0.00 
 129   19:40   0.00   96.5     9   10.0   204    11.6    0.00 
 129   19:45   0.00   96.2     9    9.3   201    10.5    0.00 
 129   19:50   0.00   95.8     9    9.6   200    11.6    0.00 
 129   19:55   0.00   95.3     9    9.7   201    11.0    0.00 
 129   20:00   0.00   94.9     9    9.4   201    11.0    0.00 
 129   20:05   0.00   94.6     9    9.3   200    10.5    0.00 
 129   20:10   0.00   94.2     9    9.1   204    10.5    0.00 
 129   20:15   0.00   94.0     9    9.2   211    11.6    0.00 
 129   20:20   0.00   93.3     9    8.1   208     9.9    0.00 
 129   20:25   0.00   92.9    10    9.0   226    10.5    0.00 
 129   20:30   0.00   92.9    10    8.6   226    10.5    0.00 
 129   20:35   0.00   93.0    10    9.2   218    10.5    0.00 
 129   20:40   0.00   92.6    10    7.7   224     9.3    0.00 
 129   20:45   0.00   92.3    10    8.7   227    10.5    0.00 
 129   20:50   0.00   92.6    10    9.9   230    11.6    0.00 
 129   20:55   0.00   92.6    10    8.7   218    11.6    0.00 
 129   21:00   0.00   92.1    10    9.0   222    11.0    0.00 
 129   21:05   0.00   92.3    10    9.9   216    11.6    0.00 
 129   21:10   0.00   91.9    10    9.3   212    10.5    0.00 
 129   21:15   0.00   91.7    10    8.5   209     9.9    0.00 
 129   21:20   0.00   91.7    10    8.4   210     9.9    0.00 
 129   21:25   0.00   91.3    10    9.1   206    10.5    0.00 
 129   21:30   0.00   91.0    10    9.3   197    10.5    0.00 
 129   21:35   0.00   90.2    11    8.8   191    11.0    0.00 
 129   21:40   0.00   90.1    11    9.3   195     9.9    0.00 
 129   21:45   0.00   90.1    11   10.8   202    12.7    0.00 
 129   21:50   0.00   91.0    11   11.5   195    13.3    0.00 
 129   21:55   0.00   90.5    11   11.1   206    12.1    0.00 
 129   22:00   0.00   88.8    11   13.4   237    17.7    0.00 
 129   22:05   0.00   90.6    11   13.2   216    19.4    0.00 
 129   22:10   0.00   91.1    11   11.9   203    14.9    0.00 
 129   22:15   0.00   90.2    11   10.0   210    12.7    0.00 
 129   22:20   0.00   88.8    11   10.0   225    12.1    0.00 
 129   22:25   0.00   89.3    11    9.8   209    12.1    0.00 
 129   22:30   0.00   88.3    12   10.0   221    11.6    0.00 
 129   22:35   0.00   88.0    12    9.8   213    11.0    0.00 
 129   22:40   0.00   88.0    12   10.4   209    11.6    0.00 
 129   22:45   0.00   88.0    12   11.0   204    12.7    0.00 
 129   22:50   0.00   89.0    12   11.1   199    12.1    0.00 
 129   22:55   0.00   89.3    12   11.1   199    11.6    0.00 
 129   23:00   0.00   89.5    12   10.8   198    11.6    0.00 
 129   23:05   0.00   88.8    12   10.3   197    11.0    0.00 
 129   23:10   0.00   88.4    12    9.5   195    10.5    0.00 
 129   23:15   0.00   88.2    12    9.9   192    11.0    0.00 
 129   23:20   0.00   88.5    12   10.5   192    11.6    0.00 
 129   23:25   0.00   88.5    12   10.4   193    11.6    0.00 
 129   23:30   0.00   88.7    12   10.7   190    12.7    0.00 
 129   23:35   0.00   88.4    12   11.2   190    12.1    0.00 
 129   23:40   0.00   89.0    12   12.2   187    13.8    0.00 
 129   23:45   0.00   88.6    12   11.9   188    13.3    0.00 
 129   23:50   0.00   87.6    13   11.2   186    12.1    0.00 
 129   23:55   0.00   87.8    13   11.6   189    13.3    0.00 
 130    0:00   0.00   88.3    12   11.0   193    12.7    0.00 
 130    0:05   0.00   87.9    12   10.1   199    12.1    0.00 
 130    0:10   0.00   87.6    13    8.7   204    10.5    0.00 
 130    0:15   0.00   87.3    13    8.6   208     9.3    0.00 
 130    0:20   0.00   87.2    13    8.8   204    10.5    0.00 
 130    0:25   0.00   87.6    13    9.2   197    10.5    0.00 
 130    0:30   0.00   87.8    13    8.8   192     9.9    0.00 
 130    0:35   0.00   87.2    13    8.0   182     8.8    0.00 
 130    0:40   0.00   88.0    13    8.4   178     9.9    0.00 
 130    0:45   0.00   88.7    12    8.6   178     9.9    0.00 
 130    0:50   0.00   88.6    12    7.8   174     8.8    0.00 
 130    0:55   0.00   88.0    12    5.9   141     7.1    0.00 
 130    1:00   0.00   85.6    12    5.8   103     7.1    0.00 
 130    1:05   0.00   82.4    14    7.0   341    14.4    0.00 
 130    1:10   0.00   81.4    15    6.6   321    13.8    0.00 
 130    1:15   0.00   83.4    14    4.0     8     6.5    0.00 
 130    1:20   0.00   81.4    16    8.0   338    11.6    0.00 
 130    1:25   0.00   81.5    15    5.9   305     8.8    0.00 
 130    1:30   0.00   85.9    12    3.8   298     8.2    0.00 
 130    1:35   0.00   81.7    15    3.4   332     9.3    0.00 
 130    1:40   0.00   81.4    15    2.5    48     4.9    0.00 
 130    1:45   0.00   79.8    15    5.8    39     7.1    0.00 
 130    1:50   0.00   81.1    15    8.0    10     9.3    0.00 
 130    1:55   0.00   81.6    15    7.2     8     8.2    0.00 
 130    2:00   0.00   81.1    15    6.3    27     7.7    0.00 
 130    2:05   0.00   80.5    15    6.4    56     8.2    0.00 
 130    2:10   0.00   81.4    15    6.4    64     8.2    0.00 
 130    2:15   0.00   83.0    14    6.9    72     8.8    0.00 
 130    2:20   0.00   82.6    14    6.7    68     8.8    0.00 
 130    2:25   0.00   82.0    14    7.5    77     9.3    0.00 
 130    2:30   0.00   82.1    15    6.4    80     8.2    0.00 
 130    2:35   0.00   81.8    16    6.0    85     7.1    0.00 
 130    2:40   0.00   80.9    16    6.9    91     8.2    0.00 
 130    2:45   0.00   80.4    16    7.3    95     8.2    0.00 
 130    2:50   0.00   80.3    16    7.9    96     9.3    0.00 
 130    2:55   0.00   79.9    16    6.8    92     7.7    0.00 
 130    3:00   0.00   78.9    17    7.4    91     8.2    0.00 
 130    3:05   0.00   78.9    17    8.2   101     9.3    0.00 
 130    3:10   0.00   78.7    17    8.6   108     9.9    0.00 
 130    3:15   0.00   78.2    18    9.1   107     9.9    0.00 
 130    3:20   0.00   77.6    18   10.0   104    12.1    0.00 
 130    3:25   0.00   78.0    18   10.8   105    11.6    0.00 
 130    3:30   0.00   77.8    18   10.7   108    11.6    0.00 
 130    3:35   0.00   77.4    18   10.4   109    11.0    0.00 
 130    3:40   0.00   78.5    18   10.4   108    11.0    0.00 
 130    3:45   0.00   78.6    18   10.4   105    11.0    0.00 
 130    3:50   0.00   77.6    18   11.1   102    11.6    0.00 
 130    3:55   0.00   77.5    18   10.4   105    11.6    0.00 
 130    4:00   0.00   76.9    18    9.0   110    10.5    0.00 
 130    4:05   0.00   76.2    18    8.8   106    11.0    0.00 
 130    4:10   0.00   76.4    17    9.7   102    10.5    0.00 
 130    4:15   0.00   76.1    17    9.0    98     9.9    0.00 
 130    4:20   0.00   75.6    17    9.4   101    11.0    0.00 
 130    4:25   0.00   74.6    18    9.1   103    10.5    0.00 
 130    4:30   0.00   74.0    18    9.4   106    11.0    0.00 
 130    4:35   0.00   74.3    18   11.3   107    12.7    0.00 
 130    4:40   0.00   75.4    18   11.7   110    12.7    0.00 
 130    4:45   0.00   75.6    18   11.3   110    12.7    0.00 
 130    4:50   0.00   76.4    18   11.5   106    12.7    0.00 
 130    4:55   0.00   76.0    18   11.1   104    12.1    0.00 
 130    5:00   0.00   76.3    18   10.9   101    12.1    0.00 
 130    5:05   0.00   75.8    18   11.0   102    12.1    0.00 
 130    5:10   0.00   75.4    18    9.9   102    11.0    0.00 
 130    5:15   0.00   75.1    18   10.0   104    11.0    0.00 
 130    5:20   0.00   74.9    17    9.2   109    11.0    0.00 
 130    5:25   0.00   74.9    17   10.0   106    11.6    0.00 
 130    5:30   0.00   73.8    17   11.2   111    12.7    0.00 
 130    5:35   0.00   73.4    16   11.2   111    13.3    0.00 
 130    5:40   0.00   73.5    16   11.0   107    12.1    0.00 
 130    5:45   0.01   73.4    15   10.8   107    12.1    0.00 
 130    5:50   0.02   73.6    15   10.3   104    13.3    0.00 
 130    5:55   0.03   73.0    15    8.9    98    10.5    0.00 
 130    6:00   0.03   72.5    15    9.5   102    11.6    0.00 
 130    6:05   0.05   72.3    15    8.9   102    11.0    0.00 
 130    6:10   0.06   71.8    15    8.7    99    10.5    0.00 
 130    6:15   0.07   71.8    15    8.7    98    10.5    0.00 
 130    6:20   0.08   71.8    15    8.8    95    11.0    0.00 
 130    6:25   0.10   71.9    15    9.1    96    11.0    0.00 
 130    6:30   0.11   72.2    15    7.9   101    11.6    0.00 
 130    6:35   0.13   72.5    15    7.9   105     9.9    0.00 
 130    6:40   0.14   73.2    15    7.4    93     8.8    0.00 
 130    6:45   0.16   73.7    15    7.3    86     8.8    0.00 
 130    6:50   0.17   74.1    15    7.7    91     8.8    0.00 
 130    6:55   0.19   75.0    14    7.6    83     8.8    0.00 
 130    7:00   0.20   75.8    14    7.0    90     8.2    0.00 
 130    7:05   0.22   76.5    14    6.0    79     7.7    0.00 
 130    7:10   0.23   77.3    14    5.7    81     6.5    0.00 
 130    7:15   0.25   77.9    14    5.5    82     6.5    0.00 
 130    7:20   0.27   78.5    13    6.5    68     8.2    0.00 
 130    7:25   0.28   79.1    13    8.6    67    10.5    0.00 
 130    7:30   0.30   80.0    13    8.2    73     9.9    0.00 
 130    7:35   0.32   81.3    13    9.0    77    11.0    0.00 
 130    7:40   0.34   82.3    12    9.2    83    11.0    0.00 
 130    7:45   0.35   83.0    12    9.8    81    12.1    0.00 
 130    7:50   0.37   83.6    12    9.8    88    11.6    0.00 
 130    7:55   0.39   84.7    12    7.7    80     9.3    0.00 
 130    8:00   0.40   85.4    12    7.0    84     9.3    0.00 
 130    8:05   0.42   85.8    11    6.5    99     8.2    0.00 
 130    8:10   0.44   86.6    11    5.5    88     7.1    0.00 
 130    8:15   0.45   87.7    11    5.4    71     8.2    0.00 
 130    8:20   0.47   88.2    11    6.1    48     8.2    0.00 
 130    8:25   0.48   88.3    11    6.5    30    10.5    0.00 
 130    8:30   0.50   87.7    11    6.3    23     8.2    0.00 
 130    8:35   0.51   87.9    11    5.9    18     7.7    0.00 
 130    8:40   0.53   87.9    11    5.2    24     7.7    0.00 
 130    8:45   0.54   88.8    10    5.1    35     7.7    0.00 
 130    8:50   0.56   89.7    10    6.6    34     8.8    0.00 
 130    8:55   0.57   89.6    10    6.7    29     9.3    0.00 
 130    9:00   0.59   89.9    10    6.7    21     8.8    0.00 
 130    9:05   0.60   90.1    10    6.3    25     8.8    0.00 
 130    9:10   0.62   90.4    10    6.0    16     8.2    0.00 
 130    9:15   0.63   90.9    10    5.4    35     8.8    0.00 
 130    9:20   0.65   91.7    10    5.2    27     8.2    0.00 
 130    9:25   0.66   92.1    10    5.3    32     7.1    0.00 
 130    9:30   0.67   92.5    10    3.5    23     6.5    0.00 
 130    9:35   0.69   94.6     9    4.1    29     8.2    0.00 
 130    9:40   0.70   94.5     9    2.5    35     5.4    0.00 
 130    9:45   0.71   95.6     9    3.0    22     4.3    0.00 
 130    9:50   0.72   96.1     9    5.4    48     7.7    0.00 
 130    9:55   0.73   94.8     9    3.7    58     8.2    0.00 
 130   10:00   0.75   95.2     9    2.8    67     7.1    0.00 
 130   10:05   0.76   95.7     9    3.5   106     6.0    0.00 
 130   10:10   0.77   96.2     9    4.5    70     9.9    0.00 
 130   10:15   0.78   95.7     9    4.6    62     8.8    0.00 
 130   10:20   0.79   96.0     9    3.7    51     8.2    0.00 
 130   10:25   0.75   96.4     9    2.5   351     7.1    0.00 
 130   10:30   0.65   96.3     9    3.0     9     6.5    0.00 
 130   10:35   0.82   97.2     9    3.3    62     6.0    0.00 
 130   10:40   0.83   97.2     9    4.6    79     6.5    0.00 
 130   10:45   0.83   97.4     9    2.6    46     6.0    0.00 
 130   10:50   0.84   98.1     8    4.1   122     7.7    0.00 
 130   10:55   0.85   98.9     8    3.0   152     7.7    0.00 
 130   11:00   0.86   98.7     8    3.6    72     8.8    0.00 
 130   11:05   0.86   99.0     8    3.9    76     8.2    0.00 
 130   11:10   0.87  100.1     8    2.0    73     6.0    0.00 
 130   11:15   0.88  100.9     8    2.1    55     4.9    0.00 
 130   11:20   0.89   99.6     8    2.7    17     5.4    0.00 
 130   11:25   0.89   99.4     8    5.3   355     8.8    0.00 
 130   11:30   0.89   99.1     8    3.5    15     8.2    0.00 
 130   11:35   0.90   99.2     8    3.9    30     6.0    0.00 
 130   11:40   0.90  100.8     8    6.1   346    10.5    0.00 
 130   11:45   0.91   99.8     8    6.7   356     9.9    0.00 
 130   11:50   0.91  100.0     8    4.3   334     8.2    0.00 
 130   11:55   0.91  100.6     8    4.1   313     6.5    0.00 
 130   12:00   0.92  101.0     8    3.1   297     6.5    0.00 
 130   12:05   0.92  100.9     8    5.9   330     9.9    0.00 
 130   12:10   0.92  103.2     7    2.8    46     4.9    0.00 
 130   12:15   0.92  104.1     7    5.6   175    13.3    0.00 
 130   12:20   0.93  102.5     7    8.7   214    13.3    0.00 
 130   12:25   0.93  101.6     8    8.2   204    11.6    0.00 
 130   12:30   0.93  101.1     8    5.9   200    14.4    0.00 
 130   12:35   0.92  101.0     8    9.1   204    13.8    0.00 
 130   12:40   0.92  101.0     8    6.9   190    12.1    0.00 
 130   12:45   0.92  101.5     8    6.1   174    10.5    0.00 
 130   12:50   0.92  102.5     7    6.1   191    10.5    0.00 
 130   12:55   0.92  102.2     7    5.2   112    11.0    0.00 
 130   13:00   0.92  102.7     7    5.2    36     9.9    0.00 
 130   13:05   0.91  102.4     7    6.2   113     9.9    0.00 
 130   13:10   0.91  102.4     8    9.7   206    18.3    0.00 
 130   13:15   0.91  102.2     8    7.6   229    13.3    0.00 
 130   13:20   0.90  102.3     8    4.7   302     8.2    0.00 
 130   13:25   0.90  103.0     7    9.2   217    16.6    0.00 
 130   13:30   0.90  103.4     7   10.4   219    14.4    0.00 
 130   13:35   0.89  102.6     7    5.8   272     9.9    0.00 
 130   13:40   0.89  104.0     7   10.0   190    19.4    0.00 
 130   13:45   0.88  103.0     7   10.6   179    19.4    0.00 
 130   13:50   0.87  103.2     7    4.6   152     9.3    0.00 
 130   13:55   0.87  103.4     7    6.1   245    12.7    0.00 
 130   14:00   0.86  103.6     7    7.7   225    14.9    0.00 
 130   14:05   0.85  103.6     7    8.6   149    14.9    0.00 
 130   14:10   0.84  104.3     7    7.8   160    11.6    0.00 
 130   14:15   0.84  104.7     7   11.1   204    20.5    0.00 
 130   14:20   0.83  104.5     7   15.5   220    25.6    0.00 
 130   14:25   0.82  104.0     7   16.1   225    22.8    0.00 
 130   14:30   0.81  103.4     7   11.6   231    17.2    0.00 

Return to Spot Road graphs page.


Western Regional Climate Center,wrcc@dri.edu